ASN logo
Last updated: 30 March 2020
Statuts:Enquête Officielle
Date:mercredi 22 août 2018
Heure:19:30
Type/Sous-type:Silhouette image of generic AT76 model; specific model in this crash may look slightly different
ATR 72-212A (ATR-72-600)
Compagnie:Mandarin Airlines
Immatriculation: B-16852
Numéro de série: 1387
Année de Fabrication: 2017-01-19 (1 year 7 months)
Heures de vol:1342
Cycles:2101
Moteurs: 2 Pratt & Whitney Canada PW127M
Equipage:victimes: 0 / à bord: 4
Passagers:victimes: 0 / à bord: 70
Total:victimes: 0 / à bord: 74
Dégats de l'appareil: Mineurs
Conséquences: Repaired
Lieu de l'accident:Taichung-Ching Chuan Kang Airport (RMQ) (   Taïwan)
Phase de vol: A l'atterrissage (LDG)
Nature:Transport de Passagers Nat.
Aéroport de départ:Magong Airport (MZG/RCQC), Taïwan
Aéroport de destination:Taichung-Ching Chuan Kang Airport (RMQ/RCMQ), Taïwan
Numéro de vol:AE788
Détails:
Mandarin Airlines flight 788, an ATR 72-600 aircraft, was damaged after hitting a runway edge light on landing at Taichung Airport, Taiwan.
The aircraft had departed Magong, Penghu Islands, at 19:02 hours (11:02 UTC) and touched down on runway 36 at 19:30 hours.
Weather information shows that there was a thunderstorm overhead the airport, moving to the west at the time of the accident.

The investigation revealed that the copilot was Pilot Flying during the approach, in weather conditions below limits. The approach was flown manually with the PF failing to correct while the aircraft drifted to the left.

Accident investigation:
cover
Investigating agency: TTSB
Status: Investigation completed
Duration: 1 year
Accident number: TTSB-AOR-19-08-001
Download report: Final report

Sources:
» ASC

METAR Weather report:
11:00 UTC / 19:00 local time:
RCMQ 221100Z 16008KT 0600 R36/0800N +TSRA SCT004 SCT008CB BKN016 OVC030 28/27 Q0998 NOSIG RMK A2949 RA AMT 21.5MM TS OVHD MOV N

11:30 UTC / 19:30 local time:
RCMQ 221130Z 19006KT 0600 R36/1000U +TSRA SCT004 SCT008CB BKN016 OVC030 26/25 Q0998 NOSIG RMK A2949 TS OVHD MOV W

11:44 UTC / 19:44 local time:
RCMQ 221144Z 21005KT 0600 R36/1000N +TSRA SCT004 SCT008CB BKN016 OVC030 26/25 Q0999 NOSIG RMK A2950 TS W MOV NW


Photos

photo of ATR-72-600-B-16852
accident date: 22-08-2018
type: ATR 72-600
registration: B-16852
 

Plan
Ce plan montre l'aéroport de départ ainsi que la supposée destination du vol. La ligne fixe reliant les deux aéroports n'est pas le plan de vol exact.
La distance entre Magong Airport et Taichung-Ching Chuan Kang Airport est de 126 km (79 miles).
Accident location: Approximate; accuracy within a few kilometers.

Les informations ci-dessus ne représentent pas l'opinion de la 'Flight Safety Foundation' ou de 'Aviation Safety Network' sur les causes de l'accident. Ces informations prélimimaires sont basées sur les faits tel qu'ils sont connus à ce jour.
languages: languages

Share